ルア の空港の天気 - METARとTAF

マルタ国際空港 ( LMML / MLA ) - マルタ ルア
飛行場実況気象(Metar)
観測時間02/05 20:45 CET (02/05 19:45 UTC)
風向・風速北 6m/s
視程10km以上
天気現象
少しの雲 雲底高度 1220m
気温10℃
湿度50%
気圧1024hPa
METARLMML 051945Z 35011KT 9999 FEW040 10/M00 Q1024 NOSIG
過去の天気等 Google飛行場航空写真 Wunderground天気予報

過去48時間のMETAR

飛行場予報(TAF)
発表時間: 2/05 18:00 CET (2/05 17:00 UTC)
予報対象時間: 5日19時 CET ~ 6日19時 CET
風向・風速北 8m/s
視程10km以上
少しの雲 雲底高度 820m
5日19時 CET ~ 5日22時 CET に一時的に
風向・風速北 9m/s 瞬間風速 14m/s
6日2時 CET ~ 6日5時 CET に徐々に
風向・風速不定 3m/s
TAF LMML 051700Z 0518/0618 35016KT 9999 FEW027
TEMPO 0518/0521 36018G28KT
BECMG 0601/0604 VRB06KT